Time;durP1;ratioP1;P1;durP2;ratioP2;P2;SDS_P1;SDS_P2;PMS_P1;PMS_P2;Temp;Humidity;BMP_temperature;BMP_pressure;BME280_temperature;BME280_humidity;BME280_pressure;Samples;Min_cycle;Max_cycle;Signal;HPM_P1;HPM_P2
2022/10/08 00:01:05;;;;;;;14.80;2.92;;;12.70;99.90;;;;;;5117916;27;20067;-67
2022/10/08 00:03:38;;;;;;;12.23;2.70;;;12.70;99.90;;;;;;5091082;28;20028;-65
2022/10/08 00:06:09;;;;;;;15.63;2.33;;;12.70;99.90;;;;;;5090631;28;20294;-65
2022/10/08 00:08:37;;;;;;;12.53;2.90;;;12.60;99.90;;;;;;5087077;28;20043;-68
2022/10/08 00:11:09;;;;;;;9.75;2.30;;;12.50;99.90;;;;;;5105609;28;20040;-67
2022/10/08 00:13:41;;;;;;;11.50;2.70;;;12.50;99.90;;;;;;5089878;28;20055;-67
2022/10/08 00:16:24;;;;;;;8.73;2.30;;;12.40;99.90;;;;;;5087729;28;20039;-67
2022/10/08 00:18:52;;;;;;;7.50;2.20;;;12.40;99.90;;;;;;5087984;28;20500;-68
2022/10/08 00:21:28;;;;;;;10.80;2.72;;;12.40;99.90;;;;;;5088016;28;20067;-69
2022/10/08 00:23:55;;;;;;;10.93;2.30;;;12.40;99.90;;;;;;5088573;28;20048;-69
2022/10/08 00:26:23;;;;;;;14.68;3.22;;;12.30;99.90;;;;;;5089711;28;20039;-66
2022/10/08 00:28:49;;;;;;;11.50;2.60;;;12.30;99.90;;;;;;5090224;28;20039;-65
2022/10/08 00:31:19;;;;;;;7.78;2.40;;;12.30;99.90;;;;;;5090149;28;20040;-67
2022/10/08 00:33:48;;;;;;;14.10;2.90;;;12.30;99.90;;;;;;5091908;28;20131;-65
2022/10/08 00:36:14;;;;;;;11.32;2.78;;;12.20;99.90;;;;;;5093144;28;20047;-66
2022/10/08 00:38:40;;;;;;;13.85;3.63;;;12.20;99.90;;;;;;5094895;28;20475;-67
2022/10/08 00:41:15;;;;;;;11.52;2.88;;;12.20;99.90;;;;;;5091029;28;20093;-70
2022/10/08 00:43:48;;;;;;;10.77;2.83;;;12.20;99.90;;;;;;5074994;28;20123;-68
2022/10/08 00:46:27;;;;;;;10.68;2.58;;;12.10;99.90;;;;;;5093038;28;20044;-67
2022/10/08 00:49:01;;;;;;;8.77;2.53;;;12.10;99.90;;;;;;5074337;28;20039;-68
2022/10/08 00:51:28;;;;;;;8.93;2.80;;;12.10;99.90;;;;;;5090011;28;20206;-66
2022/10/08 00:53:54;;;;;;;10.38;2.67;;;12.10;99.90;;;;;;5073609;28;20093;-66
2022/10/08 00:56:20;;;;;;;7.75;2.78;;;12.10;99.90;;;;;;5089166;28;20055;-68
2022/10/08 00:58:48;;;;;;;7.13;2.65;;;12.20;99.90;;;;;;5088478;28;20144;-66
2022/10/08 01:01:13;;;;;;;10.02;3.38;;;12.20;99.90;;;;;;5089579;28;20391;-67
2022/10/08 01:03:39;;;;;;;13.38;2.97;;;12.20;99.90;;;;;;5092979;28;20070;-68
2022/10/08 01:06:28;;;;;;;8.43;3.25;;;12.20;99.90;;;;;;5090589;28;20039;-65
2022/10/08 01:09:08;;;;;;;10.63;3.15;;;12.20;99.90;;;;;;5089888;28;20067;-67
2022/10/08 01:11:42;;;;;;;11.23;3.92;;;12.20;99.90;;;;;;5090449;28;20046;-68
2022/10/08 01:14:11;;;;;;;8.77;2.97;;;12.20;99.90;;;;;;5090656;28;20052;-67
2022/10/08 01:17:05;;;;;;;9.80;2.63;;;12.20;99.90;;;;;;5074225;28;20122;-66
2022/10/08 01:20:03;;;;;;;9.13;2.75;;;12.20;99.90;;;;;;5028314;28;20049;-68
2022/10/08 01:22:34;;;;;;;9.93;2.63;;;12.20;99.90;;;;;;5011328;28;20917;-66
2022/10/08 01:25:31;;;;;;;10.30;3.10;;;12.20;99.90;;;;;;5010951;28;20096;-67
2022/10/08 01:28:27;;;;;;;13.13;2.90;;;12.20;99.90;;;;;;5012153;28;20041;-67
2022/10/08 01:31:07;;;;;;;7.20;3.17;;;12.10;99.90;;;;;;5012163;28;20514;-67
2022/10/08 01:33:39;;;;;;;9.70;2.58;;;12.10;99.90;;;;;;5011152;28;20060;-67
2022/10/08 01:36:07;;;;;;;7.70;2.40;;;12.10;99.90;;;;;;5012195;28;20516;-69
2022/10/08 01:38:39;;;;;;;9.40;2.55;;;12.00;99.90;;;;;;5009797;28;20398;-66
2022/10/08 01:41:08;;;;;;;8.32;2.60;;;12.00;99.90;;;;;;5027637;28;20037;-68
2022/10/08 01:43:37;;;;;;;9.05;3.00;;;12.00;99.90;;;;;;5011408;28;20496;-68
2022/10/08 01:46:15;;;;;;;7.78;2.42;;;12.00;99.90;;;;;;4994557;28;20175;-66
2022/10/08 01:48:43;;;;;;;6.60;2.50;;;12.00;99.90;;;;;;4994975;28;20052;-68
2022/10/08 01:51:17;;;;;;;4.97;2.30;;;12.00;99.90;;;;;;5010155;28;20063;-67
2022/10/08 01:53:46;;;;;;;5.90;2.05;;;12.00;99.90;;;;;;5026880;28;20045;-68
2022/10/08 01:56:16;;;;;;;6.15;2.42;;;12.00;99.90;;;;;;5032953;28;20044;-68
2022/10/08 01:59:04;;;;;;;7.80;2.40;;;12.00;99.90;;;;;;5071901;28;20135;-67
2022/10/08 02:01:55;;;;;;;9.35;2.95;;;12.00;99.90;;;;;;5088017;28;20489;-68
2022/10/08 02:04:33;;;;;;;6.13;2.00;;;12.00;99.90;;;;;;5087798;28;20509;-67
2022/10/08 02:07:09;;;;;;;6.32;2.22;;;12.00;99.90;;;;;;5086477;28;20032;-68
2022/10/08 02:09:50;;;;;;;6.03;2.20;;;11.90;99.90;;;;;;5087352;28;20044;-66
2022/10/08 02:12:16;;;;;;;4.13;1.95;;;11.90;99.90;;;;;;5082063;28;20115;-72
2022/10/08 02:14:47;;;;;;;6.18;2.20;;;11.90;99.90;;;;;;5087628;28;20044;-69
2022/10/08 02:17:38;;;;;;;6.03;1.98;;;11.90;99.90;;;;;;5088250;28;20059;-67
2022/10/08 02:20:06;;;;;;;6.25;1.60;;;11.90;99.90;;;;;;5086487;28;20052;-67
2022/10/08 02:22:36;;;;;;;13.98;2.60;;;11.80;99.90;;;;;;5093339;28;20043;-67
2022/10/08 02:25:12;;;;;;;5.15;2.33;;;11.80;99.90;;;;;;5090819;28;20032;-70
2022/10/08 02:28:17;;;;;;;3.28;1.50;;;11.80;99.90;;;;;;5122999;27;20039;-69
2022/10/08 02:30:51;;;;;;;9.05;2.00;;;11.80;99.90;;;;;;5010780;28;20046;-67
2022/10/08 02:33:41;;;;;;;3.83;1.80;;;11.80;99.90;;;;;;5027278;28;20128;-67
2022/10/08 02:36:09;;;;;;;5.38;1.70;;;11.70;99.90;;;;;;5011033;28;20519;-67
2022/10/08 02:38:52;;;;;;;6.88;1.50;;;11.70;99.90;;;;;;4994157;28;20049;-70
2022/10/08 02:41:21;;;;;;;8.52;1.80;;;11.60;99.90;;;;;;5023762;28;20058;-67
2022/10/08 02:43:49;;;;;;;3.92;1.52;;;11.60;99.90;;;;;;5011398;28;20061;-68
2022/10/08 02:46:19;;;;;;;5.25;1.80;;;11.60;99.90;;;;;;5011159;28;20052;-67
2022/10/08 02:48:59;;;;;;;5.15;1.70;;;11.50;99.90;;;;;;5012688;28;20148;-68
2022/10/08 02:51:26;;;;;;;4.88;1.70;;;11.50;99.90;;;;;;4994782;28;20053;-65
2022/10/08 02:53:52;;;;;;;5.97;1.60;;;11.50;99.90;;;;;;5011479;28;20049;-65
2022/10/08 02:56:26;;;;;;;5.20;2.13;;;11.50;99.90;;;;;;5011457;28;20119;-72
2022/10/08 02:58:52;;;;;;;4.15;1.77;;;11.50;99.90;;;;;;4994602;28;20138;-67
2022/10/08 03:01:32;;;;;;;5.82;1.70;;;11.40;99.90;;;;;;5010691;28;20601;-67
2022/10/08 03:04:14;;;;;;;6.78;1.70;;;11.40;99.90;;;;;;5010995;28;20049;-70
2022/10/08 03:06:40;;;;;;;6.93;1.73;;;11.40;99.90;;;;;;5018711;28;20036;-67
2022/10/08 03:09:07;;;;;;;6.78;2.17;;;11.40;99.90;;;;;;5089986;28;20097;-67
2022/10/08 03:11:34;;;;;;;7.53;1.67;;;11.30;99.90;;;;;;5088574;28;20040;-68
2022/10/08 03:14:03;;;;;;;5.93;1.80;;;11.30;99.90;;;;;;5088044;28;20395;-64
2022/10/08 03:16:39;;;;;;;10.30;2.15;;;11.30;99.90;;;;;;5088737;28;20040;-68
2022/10/08 03:19:07;;;;;;;6.85;1.98;;;11.20;99.90;;;;;;5074232;28;20403;-67
2022/10/08 03:21:33;;;;;;;6.43;2.03;;;11.20;99.90;;;;;;5092492;28;20048;-66
2022/10/08 03:23:58;;;;;;;7.35;2.28;;;11.20;99.90;;;;;;5091694;28;20055;-67
2022/10/08 03:26:24;;;;;;;8.68;2.13;;;11.20;99.90;;;;;;5093194;28;20044;-66
2022/10/08 03:28:53;;;;;;;7.45;2.30;;;11.20;99.90;;;;;;5092041;28;20032;-69
2022/10/08 03:31:18;;;;;;;7.13;2.00;;;11.10;99.90;;;;;;5093246;28;20483;-66
2022/10/08 03:33:51;;;;;;;9.90;2.80;;;11.10;99.90;;;;;;5094180;28;20051;-65
2022/10/08 03:36:18;;;;;;;8.50;1.83;;;11.10;99.90;;;;;;5094748;28;20536;-67
2022/10/08 03:38:44;;;;;;;8.95;2.08;;;11.10;99.90;;;;;;5094574;28;20092;-68
2022/10/08 03:41:09;;;;;;;7.35;2.25;;;11.10;99.90;;;;;;5093192;28;20036;-67
2022/10/08 03:43:35;;;;;;;9.18;2.70;;;11.10;99.90;;;;;;5084237;28;20047;-67
2022/10/08 03:46:01;;;;;;;7.47;2.10;;;11.00;99.90;;;;;;5074132;28;20506;-69
2022/10/08 03:48:27;;;;;;;7.18;2.30;;;11.00;99.90;;;;;;5089614;28;20398;-67
2022/10/08 03:50:56;;;;;;;5.85;2.05;;;11.00;99.90;;;;;;5091334;28;20040;-65
2022/10/08 03:53:22;;;;;;;5.53;2.00;;;11.00;99.90;;;;;;5074297;28;20103;-70
2022/10/08 03:55:48;;;;;;;8.57;2.50;;;11.10;99.90;;;;;;5106452;27;20040;-66
2022/10/08 03:58:14;;;;;;;5.18;2.00;;;11.10;99.90;;;;;;5074061;28;20434;-68
2022/10/08 04:00:40;;;;;;;10.68;2.50;;;11.10;99.90;;;;;;5088914;28;20044;-67
2022/10/08 04:03:07;;;;;;;8.48;2.55;;;11.10;99.90;;;;;;5094492;28;20071;-66
2022/10/08 04:05:32;;;;;;;6.63;2.38;;;11.10;99.90;;;;;;5089067;28;20444;-69
2022/10/08 04:07:58;;;;;;;10.23;2.35;;;11.10;99.90;;;;;;5075408;28;20044;-68
2022/10/08 04:10:24;;;;;;;6.80;2.40;;;11.20;99.90;;;;;;5091032;28;20032;-68
2022/10/08 04:12:50;;;;;;;7.55;2.60;;;11.20;99.90;;;;;;5072216;28;20056;-66
2022/10/08 04:15:16;;;;;;;8.73;2.42;;;11.20;99.90;;;;;;5090833;28;20063;-67
2022/10/08 04:17:42;;;;;;;8.30;2.33;;;11.20;99.90;;;;;;5074466;28;20052;-68
2022/10/08 04:20:08;;;;;;;10.75;2.67;;;11.30;99.90;;;;;;5091347;28;20092;-66
2022/10/08 04:22:33;;;;;;;8.98;2.83;;;11.30;99.90;;;;;;5091862;28;20044;-67
2022/10/08 04:24:59;;;;;;;10.30;2.58;;;11.30;99.90;;;;;;5090783;28;20032;-67
2022/10/08 04:27:25;;;;;;;5.68;2.13;;;11.30;99.90;;;;;;5093475;28;20486;-70
2022/10/08 04:29:50;;;;;;;6.22;3.00;;;11.30;99.90;;;;;;5092427;28;20040;-68
2022/10/08 04:32:16;;;;;;;11.80;3.03;;;11.30;99.90;;;;;;5093866;28;20150;-67
2022/10/08 04:34:42;;;;;;;11.70;2.58;;;11.30;99.90;;;;;;5092494;28;20178;-69
2022/10/08 04:37:08;;;;;;;13.43;2.67;;;11.30;99.90;;;;;;5070321;28;20055;-69
2022/10/08 04:39:33;;;;;;;7.82;2.72;;;11.40;99.90;;;;;;5053983;28;20138;-68
2022/10/08 04:41:59;;;;;;;8.45;2.10;;;11.40;99.90;;;;;;5072010;28;20028;-67
2022/10/08 04:44:24;;;;;;;8.23;2.90;;;11.30;99.90;;;;;;5073230;28;20119;-68
2022/10/08 04:46:50;;;;;;;12.30;3.00;;;11.30;99.90;;;;;;5072006;28;20044;-67
2022/10/08 04:49:18;;;;;;;9.00;2.50;;;11.30;99.90;;;;;;5074543;28;20036;-67
2022/10/08 04:51:44;;;;;;;11.73;2.80;;;11.30;99.90;;;;;;5071921;28;20423;-66
2022/10/08 04:54:10;;;;;;;7.00;2.45;;;11.20;99.90;;;;;;5086553;28;20051;-66
2022/10/08 04:56:35;;;;;;;9.77;2.78;;;11.20;99.90;;;;;;5070698;28;20465;-69
2022/10/08 04:59:02;;;;;;;6.22;2.38;;;11.20;99.90;;;;;;5074117;28;20043;-68
2022/10/08 05:01:29;;;;;;;10.13;2.70;;;11.30;99.90;;;;;;5070430;28;20494;-66
2022/10/08 05:03:57;;;;;;;7.13;2.42;;;11.30;99.90;;;;;;5089381;28;20032;-67
2022/10/08 05:06:25;;;;;;;9.38;2.30;;;11.30;99.90;;;;;;5053476;28;20033;-68
2022/10/08 05:08:51;;;;;;;11.45;2.30;;;11.30;99.90;;;;;;5053635;28;20123;-66
2022/10/08 05:11:17;;;;;;;8.88;2.40;;;11.20;99.90;;;;;;5055851;28;20525;-68
2022/10/08 05:13:47;;;;;;;6.43;2.40;;;11.20;99.90;;;;;;5073644;28;20544;-68
2022/10/08 05:16:13;;;;;;;7.55;2.85;;;11.20;99.90;;;;;;5069570;28;20083;-67
2022/10/08 05:18:40;;;;;;;7.60;2.40;;;11.20;99.90;;;;;;5068836;28;20070;-68
2022/10/08 05:21:09;;;;;;;11.85;2.70;;;11.10;99.90;;;;;;5074086;28;20028;-69
2022/10/08 05:23:35;;;;;;;11.90;2.78;;;11.10;99.90;;;;;;5074358;28;20039;-67
2022/10/08 05:26:21;;;;;;;11.73;2.88;;;11.10;99.90;;;;;;5071973;28;20035;-69
2022/10/08 05:28:47;;;;;;;9.32;2.38;;;11.10;99.90;;;;;;5073767;28;20040;-65
2022/10/08 05:31:14;;;;;;;7.82;2.05;;;11.00;99.90;;;;;;5072711;28;20040;-70
2022/10/08 05:33:40;;;;;;;7.43;2.20;;;11.10;99.90;;;;;;5087123;28;20461;-66
2022/10/08 05:36:09;;;;;;;8.82;2.60;;;11.00;99.90;;;;;;5073055;28;20043;-66
2022/10/08 05:38:35;;;;;;;7.57;2.47;;;11.00;99.90;;;;;;5067871;28;20107;-67
2022/10/08 05:41:31;;;;;;;8.77;2.58;;;11.00;99.90;;;;;;5070968;28;20115;-67
2022/10/08 05:43:58;;;;;;;5.97;2.17;;;10.90;99.90;;;;;;5070093;28;20371;-65
2022/10/08 05:46:25;;;;;;;5.53;2.22;;;10.90;99.90;;;;;;5053101;28;20036;-65
2022/10/08 05:48:56;;;;;;;15.88;2.90;;;10.90;99.90;;;;;;5073280;28;20028;-68
2022/10/08 05:51:22;;;;;;;11.75;2.58;;;10.80;99.90;;;;;;5071562;28;20398;-68
2022/10/08 05:53:49;;;;;;;12.15;3.42;;;10.80;99.90;;;;;;5070962;28;20119;-69
2022/10/08 05:56:17;;;;;;;9.90;2.90;;;10.80;99.90;;;;;;5072868;28;20075;-66
2022/10/08 05:58:44;;;;;;;5.60;2.40;;;10.70;99.90;;;;;;5069581;28;20044;-66
2022/10/08 06:01:21;;;;;;;8.05;2.70;;;10.70;99.90;;;;;;5071273;28;20062;-65
2022/10/08 06:03:58;;;;;;;8.13;2.80;;;10.70;99.90;;;;;;5072528;28;20039;-66
2022/10/08 06:06:25;;;;;;;11.13;2.67;;;10.70;99.90;;;;;;5072760;28;20135;-68
2022/10/08 06:08:56;;;;;;;9.82;3.08;;;10.60;99.90;;;;;;5070387;28;20036;-66
2022/10/08 06:11:22;;;;;;;13.27;3.97;;;10.60;99.90;;;;;;5088631;28;20082;-69
2022/10/08 06:13:52;;;;;;;8.75;2.75;;;10.60;99.90;;;;;;5070152;28;20104;-67
2022/10/08 06:16:19;;;;;;;12.43;2.95;;;10.60;99.90;;;;;;5056255;28;20841;-68
2022/10/08 06:18:44;;;;;;;7.95;2.80;;;10.60;99.90;;;;;;5088944;28;20124;-68
2022/10/08 06:21:13;;;;;;;10.20;3.00;;;10.60;99.90;;;;;;5071561;28;20119;-66
2022/10/08 06:23:43;;;;;;;9.95;3.00;;;10.50;99.90;;;;;;5072936;28;20497;-67
2022/10/08 06:26:09;;;;;;;9.85;2.80;;;10.60;99.90;;;;;;5071556;28;20395;-68
2022/10/08 06:28:37;;;;;;;11.23;3.00;;;10.50;99.90;;;;;;5072525;28;20123;-67
2022/10/08 06:31:03;;;;;;;10.18;3.20;;;10.60;99.90;;;;;;5067956;28;20051;-68
2022/10/08 06:33:29;;;;;;;11.77;3.20;;;10.60;99.90;;;;;;5072524;28;20032;-66
2022/10/08 06:35:54;;;;;;;7.38;2.92;;;10.60;99.90;;;;;;5070242;28;20048;-66
2022/10/08 06:38:21;;;;;;;7.93;3.17;;;10.60;99.90;;;;;;5072271;28;20506;-67
2022/10/08 06:40:47;;;;;;;9.10;3.03;;;10.60;99.90;;;;;;5070223;28;20529;-68
2022/10/08 06:43:15;;;;;;;11.38;3.22;;;10.70;99.90;;;;;;5067782;28;20052;-68
2022/10/08 06:45:42;;;;;;;11.45;3.67;;;10.70;99.90;;;;;;5072259;28;20040;-68
2022/10/08 06:48:10;;;;;;;9.23;2.83;;;10.70;99.90;;;;;;5055764;28;20048;-66
2022/10/08 06:50:36;;;;;;;9.07;3.15;;;10.80;99.90;;;;;;5070515;28;20185;-66
2022/10/08 06:53:04;;;;;;;11.82;3.17;;;10.80;99.90;;;;;;5067939;28;20070;-67
2022/10/08 06:55:34;;;;;;;9.52;2.92;;;10.80;99.90;;;;;;5068760;28;20140;-66
2022/10/08 06:58:01;;;;;;;12.15;3.67;;;10.80;99.90;;;;;;5072300;28;20499;-67
2022/10/08 07:00:27;;;;;;;9.50;3.15;;;10.80;99.90;;;;;;5067239;28;20471;-67
2022/10/08 07:02:53;;;;;;;11.93;3.40;;;10.90;99.90;;;;;;5071523;28;20039;-65
2022/10/08 07:05:18;;;;;;;9.75;3.05;;;11.00;99.90;;;;;;5068596;28;20086;-68
2022/10/08 07:07:44;;;;;;;11.70;3.08;;;11.10;99.90;;;;;;5084825;28;20411;-68
2022/10/08 07:10:10;;;;;;;14.38;2.50;;;11.10;99.90;;;;;;5067027;28;20047;-67
2022/10/08 07:12:36;;;;;;;9.82;2.97;;;11.10;99.90;;;;;;5053363;28;20434;-69
2022/10/08 07:15:02;;;;;;;9.50;2.28;;;11.20;99.90;;;;;;5070308;28;20126;-68
2022/10/08 07:17:28;;;;;;;8.45;2.55;;;11.30;99.90;;;;;;5067998;28;20410;-69
2022/10/08 07:19:54;;;;;;;11.88;3.22;;;11.30;99.90;;;;;;5053804;28;20101;-68
2022/10/08 07:22:20;;;;;;;10.15;2.20;;;11.50;99.90;;;;;;5070562;28;20384;-67
2022/10/08 07:24:46;;;;;;;11.10;2.15;;;11.50;99.90;;;;;;5066456;28;20128;-67
2022/10/08 07:27:12;;;;;;;10.48;2.10;;;11.60;99.90;;;;;;5051420;28;20087;-67
2022/10/08 07:29:37;;;;;;;10.32;2.00;;;11.50;99.90;;;;;;5068698;28;20470;-68
2022/10/08 07:32:03;;;;;;;10.07;2.88;;;11.50;99.90;;;;;;5069802;28;20398;-65
2022/10/08 07:34:29;;;;;;;7.70;1.77;;;11.60;99.90;;;;;;5072378;28;20055;-68
2022/10/08 07:36:54;;;;;;;7.57;1.70;;;11.80;99.90;;;;;;5090731;28;20048;-67
2022/10/08 07:39:21;;;;;;;7.60;1.60;;;11.90;99.90;;;;;;5092337;28;20052;-65
2022/10/08 07:41:47;;;;;;;11.82;2.20;;;12.00;99.90;;;;;;5089479;28;20067;-69
2022/10/08 07:44:14;;;;;;;10.90;2.13;;;12.10;99.90;;;;;;5068792;28;20040;-65
2022/10/08 07:46:48;;;;;;;11.13;1.77;;;12.30;99.90;;;;;;5087013;28;20051;-68
2022/10/08 07:49:16;;;;;;;10.55;1.60;;;12.40;99.90;;;;;;5086985;28;20119;-69
2022/10/08 07:51:42;;;;;;;8.18;1.50;;;12.40;99.90;;;;;;5086650;28;20036;-66
2022/10/08 07:54:10;;;;;;;8.23;1.35;;;12.50;99.90;;;;;;5087013;28;20443;-66
2022/10/08 07:56:36;;;;;;;9.38;1.52;;;12.70;99.90;;;;;;5085830;28;20043;-66
2022/10/08 07:59:03;;;;;;;9.88;1.75;;;12.80;99.90;;;;;;5086844;28;20036;-67
2022/10/08 08:01:30;;;;;;;9.63;1.90;;;12.80;99.90;;;;;;5086302;28;20509;-69
2022/10/08 08:03:58;;;;;;;7.82;1.40;;;12.90;99.90;;;;;;5087591;28;20118;-66
2022/10/08 08:06:25;;;;;;;11.25;2.28;;;13.00;99.90;;;;;;5089745;28;20028;-67
2022/10/08 08:08:52;;;;;;;13.40;1.70;;;13.10;99.90;;;;;;5090308;28;20039;-66
2022/10/08 08:11:20;;;;;;;11.35;1.63;;;13.10;99.90;;;;;;5090847;28;20131;-68
2022/10/08 08:13:46;;;;;;;10.98;1.50;;;13.20;99.90;;;;;;5071662;28;20442;-67
2022/10/08 08:16:18;;;;;;;6.45;1.35;;;13.30;99.90;;;;;;5091250;28;20044;-68
2022/10/08 08:18:46;;;;;;;6.18;1.30;;;13.40;99.90;;;;;;5089948;28;20039;-68
2022/10/08 08:21:20;;;;;;;10.13;1.17;;;13.50;99.90;;;;;;5090402;28;20048;-67
2022/10/08 08:23:48;;;;;;;8.35;1.20;;;13.50;99.90;;;;;;5089478;28;20499;-67
2022/10/08 08:26:27;;;;;;;8.15;1.23;;;13.50;99.90;;;;;;5090787;28;20061;-67
2022/10/08 08:28:58;;;;;;;6.68;1.50;;;13.50;99.90;;;;;;5090122;28;20098;-67
2022/10/08 08:31:27;;;;;;;7.88;2.47;;;13.60;99.90;;;;;;5075033;28;20032;-66
2022/10/08 08:33:59;;;;;;;8.18;1.40;;;13.70;99.90;;;;;;5123215;27;20044;-68
2022/10/08 08:36:27;;;;;;;13.30;1.65;;;13.80;99.90;;;;;;5073052;28;20048;-70
2022/10/08 08:38:53;;;;;;;9.57;2.00;;;13.80;99.90;;;;;;5072348;28;20040;-67
2022/10/08 08:41:30;;;;;;;9.18;1.15;;;14.00;99.90;;;;;;5073549;28;20052;-67
2022/10/08 08:44:11;;;;;;;9.50;1.40;;;14.10;99.90;;;;;;5072523;28;20036;-70
2022/10/08 08:46:42;;;;;;;10.27;1.37;;;14.10;99.90;;;;;;5072072;28;20052;-67
2022/10/08 08:49:34;;;;;;;7.07;1.10;;;14.20;99.90;;;;;;5073208;28;20044;-67
2022/10/08 08:52:02;;;;;;;6.25;0.95;;;14.20;99.90;;;;;;5073062;28;20444;-67
2022/10/08 08:54:28;;;;;;;8.95;1.50;;;14.30;99.90;;;;;;5072893;28;20146;-69
2022/10/08 08:56:54;;;;;;;6.47;1.23;;;14.30;99.90;;;;;;5056292;28;20127;-68
2022/10/08 08:59:27;;;;;;;6.28;1.20;;;14.40;99.90;;;;;;5073216;28;20043;-69
2022/10/08 09:01:58;;;;;;;5.63;1.27;;;14.50;99.90;;;;;;5072974;28;20089;-67
2022/10/08 09:04:33;;;;;;;7.97;1.35;;;14.60;99.90;;;;;;5073106;28;20124;-69
2022/10/08 09:07:03;;;;;;;7.97;1.38;;;14.60;99.90;;;;;;5070799;28;20577;-68
2022/10/08 09:09:38;;;;;;;7.63;1.75;;;14.70;99.90;;;;;;5055794;28;20083;-67
2022/10/08 09:12:18;;;;;;;10.20;2.30;;;14.70;99.90;;;;;;5071817;28;20048;-68
2022/10/08 09:14:53;;;;;;;11.30;1.67;;;14.90;99.90;;;;;;5069212;28;20050;-70
2022/10/08 09:17:24;;;;;;;7.78;1.70;;;14.80;99.90;;;;;;5071338;28;20093;-66
2022/10/08 09:19:50;;;;;;;6.93;1.70;;;14.90;99.90;;;;;;5057185;28;20031;-68
2022/10/08 09:22:20;;;;;;;6.53;1.63;;;15.00;99.90;;;;;;5071474;28;20391;-68
2022/10/08 09:24:49;;;;;;;10.30;1.95;;;15.20;99.90;;;;;;5072287;28;20034;-67
2022/10/08 09:27:15;;;;;;;12.18;1.67;;;15.20;99.90;;;;;;5073358;28;20081;-67
2022/10/08 09:29:41;;;;;;;9.07;1.75;;;15.30;99.90;;;;;;5056335;28;20044;-69
2022/10/08 09:32:17;;;;;;;6.85;1.15;;;15.50;99.90;;;;;;5073297;28;20079;-65
2022/10/08 09:34:47;;;;;;;5.53;1.25;;;15.50;99.90;;;;;;5078078;28;20426;-70
2022/10/08 09:37:24;;;;;;;5.10;1.20;;;15.40;99.90;;;;;;5073469;28;20542;-68
2022/10/08 09:40:11;;;;;;;6.20;1.08;;;15.50;99.90;;;;;;5090405;28;20032;-67
2022/10/08 09:42:39;;;;;;;7.93;1.70;;;15.60;99.90;;;;;;5090195;28;20082;-66
2022/10/08 09:45:34;;;;;;;9.35;2.17;;;15.80;99.90;;;;;;5090444;28;20036;-68
2022/10/08 09:48:14;;;;;;;9.60;1.90;;;15.60;99.90;;;;;;5090401;28;20055;-68
2022/10/08 09:50:52;;;;;;;7.70;1.98;;;15.80;99.90;;;;;;5073235;28;20372;-69
2022/10/08 09:53:19;;;;;;;6.32;1.50;;;16.10;99.90;;;;;;5090330;28;20483;-66
2022/10/08 09:55:52;;;;;;;4.32;1.10;;;16.30;99.90;;;;;;5071716;28;20490;-67
2022/10/08 09:58:18;;;;;;;5.38;1.10;;;16.50;99.90;;;;;;5072805;28;20420;-69
2022/10/08 10:00:53;;;;;;;7.85;1.48;;;16.80;99.90;;;;;;5072082;28;20048;-68
2022/10/08 10:03:19;;;;;;;7.15;0.90;;;16.60;99.90;;;;;;5087431;28;20758;-69
2022/10/08 10:05:50;;;;;;;7.95;1.00;;;16.50;99.90;;;;;;5094233;28;20105;-68
2022/10/08 10:08:47;;;;;;;8.95;1.40;;;16.40;99.90;;;;;;5122666;27;20067;-68
2022/10/08 10:11:46;;;;;;;3.33;0.70;;;16.10;99.90;;;;;;5088415;28;20119;-67
2022/10/08 10:14:43;;;;;;;5.88;0.88;;;15.70;99.90;;;;;;5027534;28;20053;-67
2022/10/08 10:17:28;;;;;;;5.22;0.70;;;15.40;99.90;;;;;;4993277;28;20050;-69
2022/10/08 10:19:59;;;;;;;5.38;1.25;;;15.70;99.90;;;;;;5010766;28;20124;-69
2022/10/08 10:22:31;;;;;;;5.28;0.95;;;16.00;99.90;;;;;;5010471;28;20113;-69
2022/10/08 10:25:12;;;;;;;11.82;1.52;;;16.40;99.90;;;;;;4994659;28;20049;-71
2022/10/08 10:27:45;;;;;;;7.68;0.90;;;16.40;99.90;;;;;;5013564;28;20120;-67
2022/10/08 10:30:19;;;;;;;6.80;1.20;;;16.30;99.90;;;;;;5012443;28;20042;-67
2022/10/08 10:33:04;;;;;;;10.60;1.63;;;16.30;99.90;;;;;;5011251;28;20048;-69
2022/10/08 10:35:31;;;;;;;4.68;0.95;;;16.10;99.90;;;;;;5014137;28;20049;-68
2022/10/08 10:38:10;;;;;;;4.47;0.90;;;15.80;99.90;;;;;;4996134;28;20049;-68
2022/10/08 10:41:09;;;;;;;8.18;2.03;;;16.20;99.90;;;;;;5010003;28;20075;-68
2022/10/08 10:43:45;;;;;;;4.20;0.93;;;16.50;99.90;;;;;;4931653;28;20080;-66
2022/10/08 10:46:55;;;;;;;8.82;1.05;;;16.90;99.90;;;;;;4956133;28;20055;-68
2022/10/08 10:49:32;;;;;;;8.90;1.15;;;17.40;99.90;;;;;;4912850;29;20054;-67
2022/10/08 10:52:32;;;;;;;9.13;1.08;;;17.70;99.90;;;;;;4978732;28;20082;-68
2022/10/08 10:55:21;;;;;;;7.15;1.27;;;18.00;99.90;;;;;;4961653;28;20141;-66
2022/10/08 10:58:05;;;;;;;5.80;1.02;;;18.00;99.90;;;;;;4964102;28;20059;-68
2022/10/08 11:01:11;;;;;;;7.53;1.20;;;17.90;99.40;;;;;;4982611;28;20057;-68
2022/10/08 11:03:54;;;;;;;7.10;1.17;;;18.10;99.90;;;;;;4952790;28;20046;-67
2022/10/08 11:06:38;;;;;;;4.82;0.80;;;17.30;99.30;;;;;;4955312;28;20394;-68
2022/10/08 11:09:30;;;;;;;6.88;0.93;;;17.10;99.40;;;;;;4964622;28;20105;-68
2022/10/08 11:12:18;;;;;;;4.75;0.70;;;17.40;99.90;;;;;;4954325;28;20133;-69
2022/10/08 11:15:07;;;;;;;7.05;1.00;;;17.80;99.90;;;;;;4969921;28;20054;-68
2022/10/08 11:17:45;;;;;;;5.43;0.93;;;17.60;98.80;;;;;;4955751;28;20158;-68
2022/10/08 11:20:37;;;;;;;6.72;0.95;;;17.70;98.80;;;;;;4989298;28;20041;-68
2022/10/08 11:23:15;;;;;;;6.97;0.83;;;17.90;97.70;;;;;;5011573;28;20511;-67
2022/10/08 11:25:55;;;;;;;5.43;0.63;;;17.90;97.10;;;;;;5078523;28;20048;-68
2022/10/08 11:28:45;;;;;;;4.43;0.65;;;18.00;96.30;;;;;;5071999;28;20040;-68
2022/10/08 11:31:22;;;;;;;8.10;0.90;;;17.50;96.40;;;;;;5088922;28;20486;-67
2022/10/08 11:33:49;;;;;;;6.15;0.95;;;17.30;96.30;;;;;;5088889;28;20040;-69
2022/10/08 11:36:35;;;;;;;3.78;0.90;;;17.00;96.40;;;;;;5071610;28;20050;-67
2022/10/08 11:39:27;;;;;;;5.88;0.93;;;16.60;97.20;;;;;;5072326;28;20032;-66
2022/10/08 11:42:20;;;;;;;6.05;0.63;;;16.40;98.20;;;;;;5059294;28;20036;-68
2022/10/08 11:44:46;;;;;;;6.13;0.70;;;16.30;97.90;;;;;;5058712;28;20032;-68
2022/10/08 11:47:40;;;;;;;4.80;0.82;;;16.30;97.90;;;;;;5075958;28;20044;-66
2022/10/08 11:50:26;;;;;;;5.28;0.90;;;16.30;97.70;;;;;;5073369;28;20105;-68
2022/10/08 11:52:55;;;;;;;6.00;1.10;;;16.30;97.80;;;;;;5075862;28;20380;-67
2022/10/08 11:55:28;;;;;;;5.25;0.90;;;16.30;98.70;;;;;;5075551;28;20153;-68
2022/10/08 11:58:03;;;;;;;3.80;0.98;;;16.20;98.50;;;;;;5075337;28;20071;-69
2022/10/08 12:00:39;;;;;;;3.70;0.90;;;16.20;97.90;;;;;;5075746;28;20051;-69
2022/10/08 12:03:32;;;;;;;4.72;0.82;;;16.10;97.80;;;;;;5075611;28;20438;-68
2022/10/08 12:06:13;;;;;;;5.57;0.98;;;16.00;98.90;;;;;;5059362;28;20454;-69
2022/10/08 12:08:49;;;;;;;6.75;0.75;;;16.00;98.90;;;;;;5075631;28;20105;-67
2022/10/08 12:11:39;;;;;;;5.47;1.05;;;15.80;98.50;;;;;;5075567;28;20452;-68
2022/10/08 12:14:13;;;;;;;4.40;0.88;;;15.40;98.50;;;;;;5075470;28;20129;-66
2022/10/08 12:16:48;;;;;;;5.05;0.90;;;15.20;99.10;;;;;;5075396;28;20441;-68
2022/10/08 12:19:33;;;;;;;5.47;0.98;;;15.10;99.60;;;;;;5075688;28;20584;-66
2022/10/08 12:22:15;;;;;;;9.57;1.15;;;14.90;98.70;;;;;;5044032;28;20078;-65
2022/10/08 12:24:43;;;;;;;5.15;0.77;;;14.90;99.40;;;;;;5075628;28;20040;-67
2022/10/08 12:27:15;;;;;;;5.47;0.90;;;15.00;99.60;;;;;;5058125;28;20048;-70
2022/10/08 12:30:13;;;;;;;6.45;1.30;;;15.10;99.70;;;;;;5058562;28;20093;-65
2022/10/08 12:32:38;;;;;;;4.15;0.95;;;15.20;99.90;;;;;;5075211;28;20032;-66
2022/10/08 12:35:05;;;;;;;8.50;2.00;;;15.30;99.90;;;;;;5075362;28;20067;-68
2022/10/08 12:37:55;;;;;;;6.82;1.35;;;15.40;99.90;;;;;;5074790;28;20052;-65
2022/10/08 12:40:35;;;;;;;3.20;0.63;;;15.60;99.90;;;;;;5074940;28;20036;-66
2022/10/08 12:43:16;;;;;;;5.88;1.40;;;15.60;99.50;;;;;;5073262;28;20042;-66
2022/10/08 12:46:16;;;;;;;5.55;0.93;;;15.60;99.20;;;;;;5075003;28;20044;-67
2022/10/08 12:49:15;;;;;;;5.28;0.90;;;15.30;99.80;;;;;;4994250;28;20085;-68
2022/10/08 12:52:19;;;;;;;9.63;1.10;;;15.10;99.80;;;;;;4994422;28;20046;-69
2022/10/08 12:54:51;;;;;;;4.78;1.10;;;15.10;99.90;;;;;;5023663;28;20133;-66
2022/10/08 12:57:22;;;;;;;5.68;1.08;;;15.10;99.90;;;;;;4990949;28;20525;-67
2022/10/08 12:59:49;;;;;;;6.57;1.00;;;14.90;99.90;;;;;;4993384;28;20107;-66
2022/10/08 13:02:24;;;;;;;11.68;2.08;;;14.80;99.90;;;;;;4993673;28;20145;-68
2022/10/08 13:04:50;;;;;;;5.93;0.80;;;14.80;99.90;;;;;;4992443;28;20037;-67
2022/10/08 13:07:31;;;;;;;8.40;1.00;;;15.00;99.90;;;;;;4993229;28;20081;-68
2022/10/08 13:09:59;;;;;;;4.53;0.98;;;15.20;99.90;;;;;;4992557;28;20180;-67
2022/10/08 13:12:26;;;;;;;7.85;1.00;;;15.30;99.90;;;;;;4993391;28;20600;-68